Portada
METAR-TAF:

METAR-TAF

Aeroports :

Destin-Fort Walton Beach Airport

Destin, Florida, Estats Units d'Amèrica

latitud: 30-23-36N, longitud: 086-28-03W, altitud: 6 m

Observació

L'informe es va fer fa 1 hora i 2 minuts, a les 05:53 UTC
Vent calma
Temperatura 27°C
Humitat 74%
Pressió 1016 hPa
Visibilitat: 16.1 km
Cel clar

METAR: KDTS 160553Z AUTO 00000KT 10SM CLR 27/22 A2999 RMK AO2 SLP154 T02720217 10306 20272 403330250 58002

Hora: 01:55 (06:55 UTC)


TAF: manca

Observacions i pronòstics meteorològics de més de 4000 aeroports (METAR i TAF).

Les estacions disponibles són els punts grocs i vermells al mapa.

Posi el ratolí al punt desitjat per veure el nom de l'estació.

Feu clic per veure les observacions i els pronòstics meteorològics.

Per canviar el mapa: feu clic els botons verds amb una creu de color negre per apropar; al botó verd amb un guió per allunyar la imatge; o en les fletxes verdes per a mapes adjacents.


METAR-TAF: